Time;durP1;ratioP1;P1;durP2;ratioP2;P2;SDS_P1;SDS_P2;PMS_P1;PMS_P2;Temp;Humidity;BMP_temperature;BMP_pressure;BME280_temperature;BME280_humidity;BME280_pressure;Samples;Min_cycle;Max_cycle;Signal;HPM_P1;HPM_P2
2022/04/17 00:00:37;;;;;;;7.43;6.85;;;;;;;12.53;54.23;94736.66;5079824;28;20524;-70
2022/04/17 00:03:05;;;;;;;8.05;7.30;;;;;;;12.53;54.25;94733.09;5079877;28;20497;-70
2022/04/17 00:05:31;;;;;;;8.20;7.40;;;;;;;12.49;54.27;94727.50;5079838;28;20200;-70
2022/04/17 00:07:58;;;;;;;7.38;6.65;;;;;;;12.51;54.50;94721.59;5079479;28;20200;-70
2022/04/17 00:10:25;;;;;;;7.55;6.95;;;;;;;12.45;54.42;94728.59;5097489;28;20192;-70
2022/04/17 00:12:52;;;;;;;7.72;7.03;;;;;;;12.45;54.84;94729.41;5079752;28;20203;-70
2022/04/17 00:15:20;;;;;;;8.60;7.80;;;;;;;12.41;55.10;94722.22;5079191;28;20315;-70
2022/04/17 00:17:47;;;;;;;8.30;7.60;;;;;;;12.37;54.94;94729.69;5079242;28;20586;-70
2022/04/17 00:20:15;;;;;;;7.93;7.30;;;;;;;12.30;55.30;94733.13;5097318;28;20181;-70
2022/04/17 00:22:42;;;;;;;8.35;7.65;;;;;;;12.30;55.52;94722.06;5097174;28;20283;-71
2022/04/17 00:25:11;;;;;;;8.70;7.35;;;;;;;12.29;55.75;94723.25;5079327;28;20207;-70
2022/04/17 00:27:39;;;;;;;8.00;7.40;;;;;;;12.28;55.32;94711.38;5079730;28;20612;-70
2022/04/17 00:30:07;;;;;;;7.93;7.30;;;;;;;12.36;55.61;94708.72;5079507;28;20235;-70
2022/04/17 00:32:36;;;;;;;8.30;7.50;;;;;;;12.34;55.63;94708.28;5079355;28;20192;-70
2022/04/17 00:35:04;;;;;;;7.93;7.32;;;;;;;12.25;55.78;94698.31;5096630;28;20204;-69
2022/04/17 00:37:31;;;;;;;7.78;7.13;;;;;;;12.20;55.82;94684.81;5096744;28;20181;-70
2022/04/17 00:39:58;;;;;;;7.78;7.10;;;;;;;12.20;56.58;94697.81;5078724;28;20232;-70
2022/04/17 00:42:25;;;;;;;7.65;7.00;;;;;;;12.17;55.88;94715.16;5096675;28;20191;-70
2022/04/17 00:44:51;;;;;;;7.68;7.07;;;;;;;12.11;56.12;94709.16;5096702;28;20181;-70
2022/04/17 00:47:18;;;;;;;7.60;6.93;;;;;;;12.04;56.20;94698.78;5096736;28;20192;-70
2022/04/17 00:49:47;;;;;;;7.25;6.65;;;;;;;12.03;56.75;94713.78;5079076;28;20216;-70
2022/04/17 00:52:15;;;;;;;7.80;7.10;;;;;;;11.99;56.47;94706.59;5096724;28;20176;-70
2022/04/17 00:54:44;;;;;;;7.63;6.93;;;;;;;12.02;56.71;94694.81;5096152;28;20200;-70
2022/04/17 00:57:12;;;;;;;7.95;7.15;;;;;;;12.01;55.94;94680.16;5079017;28;20204;-70
2022/04/17 00:59:41;;;;;;;7.68;7.07;;;;;;;11.90;56.06;94684.72;5096624;28;20195;-70
2022/04/17 01:02:08;;;;;;;7.90;7.30;;;;;;;11.84;56.18;94685.41;5096428;28;20189;-70
2022/04/17 01:04:35;;;;;;;7.68;6.97;;;;;;;11.87;56.20;94687.44;5096130;28;20638;-70
2022/04/17 01:07:05;;;;;;;7.38;6.78;;;;;;;11.89;56.06;94685.09;5096442;28;20276;-70
2022/04/17 01:09:32;;;;;;;7.15;6.63;;;;;;;11.92;55.82;94684.38;5096435;28;20189;-70
2022/04/17 01:12:00;;;;;;;7.55;6.95;;;;;;;11.88;55.92;94695.38;5078271;28;20223;-70
2022/04/17 01:14:27;;;;;;;6.63;6.05;;;;;;;11.88;55.49;94689.84;5077951;28;20216;-69
2022/04/17 01:16:55;;;;;;;7.15;6.53;;;;;;;11.86;55.60;94683.88;5078394;28;20242;-69
2022/04/17 01:19:23;;;;;;;7.30;6.68;;;;;;;11.81;55.38;94684.16;5096160;28;20184;-70
2022/04/17 01:21:53;;;;;;;7.32;6.43;;;;;;;11.78;55.71;94684.91;5096085;28;20242;-70
2022/04/17 01:27:05;;;;;;;7.45;6.75;;;;;;;11.67;56.02;94679.19;5078603;28;20279;-70
2022/04/17 01:29:34;;;;;;;6.75;6.15;;;;;;;11.67;55.78;94681.16;5078447;28;20188;-70
2022/04/17 01:32:02;;;;;;;7.15;6.53;;;;;;;11.65;56.19;94672.44;5077929;28;20253;-70
2022/04/17 01:34:30;;;;;;;6.72;6.10;;;;;;;11.67;55.94;94675.66;5095726;28;20223;-70
2022/04/17 01:36:58;;;;;;;6.95;6.43;;;;;;;11.67;56.18;94676.44;5094993;28;20180;-70
2022/04/17 01:39:26;;;;;;;6.45;5.95;;;;;;;11.68;56.13;94680.78;5074382;28;20233;-70
2022/04/17 01:41:54;;;;;;;7.18;6.57;;;;;;;11.70;56.00;94678.47;5074510;28;20208;-70
2022/04/17 01:44:22;;;;;;;7.75;6.97;;;;;;;11.66;56.17;94674.84;5075523;28;20185;-70
2022/04/17 01:46:49;;;;;;;6.55;5.97;;;;;;;11.60;56.39;94673.56;5075491;28;20195;-70
2022/04/17 01:49:17;;;;;;;7.47;6.88;;;;;;;11.60;56.42;94678.28;5075082;28;20192;-71
2022/04/17 01:51:45;;;;;;;6.85;6.28;;;;;;;11.58;56.88;94670.34;5074577;28;20207;-70
2022/04/17 01:54:15;;;;;;;6.85;6.25;;;;;;;11.56;56.97;94667.97;5075326;28;20221;-70
2022/04/17 01:56:43;;;;;;;6.90;6.30;;;;;;;11.59;57.12;94663.69;5074024;28;20232;-70
2022/04/17 01:59:11;;;;;;;7.10;6.38;;;;;;;11.56;56.83;94673.50;5074549;28;20192;-70
2022/04/17 02:01:39;;;;;;;7.10;6.50;;;;;;;11.51;57.62;94673.81;5074066;28;20687;-70
2022/04/17 02:04:06;;;;;;;7.97;7.20;;;;;;;11.42;57.71;94670.47;5074961;28;20193;-70
2022/04/17 02:06:33;;;;;;;7.85;7.13;;;;;;;11.44;57.99;94681.97;5057447;28;20197;-70
2022/04/17 02:09:01;;;;;;;7.25;6.65;;;;;;;11.50;58.08;94674.16;5057375;28;20640;-69
2022/04/17 02:11:29;;;;;;;7.32;6.68;;;;;;;11.52;58.32;94678.16;5057470;28;20632;-69
2022/04/17 02:13:57;;;;;;;7.65;6.95;;;;;;;11.52;57.69;94671.84;5057473;28;20189;-69
2022/04/17 02:16:24;;;;;;;7.75;7.03;;;;;;;11.51;58.58;94654.47;5074804;28;20223;-69
2022/04/17 02:18:52;;;;;;;8.07;7.28;;;;;;;11.47;58.19;94655.56;5075128;28;20185;-69
2022/04/17 02:21:20;;;;;;;7.70;7.07;;;;;;;11.46;58.04;94657.53;5057745;28;20201;-70
2022/04/17 02:23:47;;;;;;;7.63;6.95;;;;;;;11.45;58.45;94657.91;5057138;28;20538;-69
2022/04/17 02:26:16;;;;;;;8.00;7.20;;;;;;;11.47;58.15;94645.31;5057598;28;20208;-69
2022/04/17 02:28:44;;;;;;;7.82;7.13;;;;;;;11.46;58.45;94638.19;5074971;28;20208;-69
2022/04/17 02:31:12;;;;;;;8.25;7.20;;;;;;;11.45;58.62;94646.88;5057382;28;20201;-69
2022/04/17 02:33:39;;;;;;;8.35;7.53;;;;;;;11.39;58.74;94643.59;5057319;28;20549;-69
2022/04/17 02:36:06;;;;;;;8.20;7.45;;;;;;;11.38;59.33;94647.53;5057294;28;20223;-70
2022/04/17 02:38:33;;;;;;;7.88;7.18;;;;;;;11.35;59.01;94642.75;5074507;28;20224;-70
2022/04/17 02:41:00;;;;;;;8.75;7.93;;;;;;;11.30;59.53;94637.53;5057054;28;20636;-70
2022/04/17 02:43:27;;;;;;;8.13;7.47;;;;;;;11.32;60.05;94644.28;5057210;28;20200;-71
2022/04/17 02:45:55;;;;;;;8.15;7.45;;;;;;;11.36;59.26;94646.31;5074547;28;20607;-71
2022/04/17 02:48:22;;;;;;;8.50;7.80;;;;;;;11.34;59.24;94635.63;5044152;28;20310;-71
2022/04/17 02:50:49;;;;;;;8.00;7.30;;;;;;;11.31;59.45;94641.91;5061086;28;20570;-71
2022/04/17 02:53:16;;;;;;;7.68;6.97;;;;;;;11.28;59.59;94646.19;5061297;28;20193;-70
2022/04/17 02:55:43;;;;;;;7.90;7.20;;;;;;;11.25;59.36;94641.38;5060820;28;20213;-71
2022/04/17 02:58:11;;;;;;;7.03;6.43;;;;;;;11.24;59.13;94645.31;5061344;28;20197;-70
2022/04/17 03:05:36;;;;;;;6.70;6.20;;;;;;;11.17;59.02;94638.88;5078164;28;20181;-70
2022/04/17 03:06:12;;;;;;;7.15;6.40;;;;;;;11.12;59.52;94636.44;5078217;28;20193;-70
2022/04/17 03:08:41;;;;;;;6.93;6.32;;;;;;;11.15;59.67;94642.03;5060842;28;20208;-71
2022/04/17 03:11:08;;;;;;;6.95;6.35;;;;;;;11.18;59.14;94634.94;5060503;28;20225;-70
2022/04/17 03:13:35;;;;;;;6.28;5.68;;;;;;;11.19;59.49;94623.56;5061107;28;20244;-70
2022/04/17 03:16:02;;;;;;;6.88;5.78;;;;;;;11.20;59.37;94630.66;5078169;28;20243;-70
2022/04/17 03:18:30;;;;;;;6.35;5.85;;;;;;;11.15;59.53;94625.47;5060462;28;20186;-71
2022/04/17 03:20:58;;;;;;;6.50;5.97;;;;;;;11.17;59.55;94627.84;5078083;28;20189;-70
2022/04/17 03:23:25;;;;;;;6.30;5.80;;;;;;;11.09;59.65;94619.44;5078062;28;20193;-69
2022/04/17 03:25:52;;;;;;;6.35;5.85;;;;;;;11.01;59.74;94626.00;5078184;28;20201;-70
2022/04/17 03:28:19;;;;;;;6.20;5.60;;;;;;;11.02;60.08;94627.56;5060170;28;20212;-70
2022/04/17 03:30:46;;;;;;;6.88;6.25;;;;;;;11.04;60.60;94630.78;5060436;28;20276;-70
2022/04/17 03:33:13;;;;;;;6.78;6.28;;;;;;;10.98;60.86;94635.00;5061092;28;20215;-70
2022/04/17 03:35:41;;;;;;;6.85;6.28;;;;;;;10.96;60.56;94640.06;5077874;28;20266;-70
2022/04/17 03:38:09;;;;;;;6.38;5.88;;;;;;;10.95;60.96;94635.72;5077659;28;20182;-70
2022/04/17 03:40:36;;;;;;;6.90;6.30;;;;;;;10.90;61.32;94636.03;5060430;28;20217;-70
2022/04/17 03:43:03;;;;;;;6.90;6.32;;;;;;;10.90;61.63;94630.53;5077598;28;20504;-70
2022/04/17 03:45:30;;;;;;;6.63;6.03;;;;;;;10.89;61.33;94637.19;5077551;28;20188;-70
2022/04/17 03:47:58;;;;;;;6.68;6.13;;;;;;;10.85;61.48;94636.31;5077802;28;20185;-70
2022/04/17 03:50:25;;;;;;;5.88;5.47;;;;;;;10.83;61.66;94636.69;5060230;28;20201;-70
2022/04/17 03:52:53;;;;;;;6.88;6.25;;;;;;;10.86;61.88;94640.69;5077528;28;20192;-70
2022/04/17 03:55:20;;;;;;;6.45;5.85;;;;;;;10.84;61.00;94640.25;5077642;28;20213;-70
2022/04/17 03:57:47;;;;;;;6.22;5.63;;;;;;;10.79;61.65;94630.31;5059588;28;20197;-70
2022/04/17 04:00:15;;;;;;;7.10;6.45;;;;;;;10.75;61.60;94640.47;5059475;28;20209;-70
2022/04/17 04:02:42;;;;;;;6.88;6.30;;;;;;;10.71;61.78;94642.38;5077365;28;20212;-70
2022/04/17 04:05:10;;;;;;;5.90;5.40;;;;;;;10.69;61.98;94632.88;5077315;28;20189;-70
2022/04/17 04:07:37;;;;;;;6.28;5.78;;;;;;;10.65;62.39;94632.78;5059457;28;20221;-70
2022/04/17 04:10:07;;;;;;;6.28;5.78;;;;;;;10.67;62.48;94629.66;5077025;28;20235;-71
2022/04/17 04:12:34;;;;;;;6.03;5.50;;;;;;;10.63;62.47;94626.81;5059655;28;20197;-72
2022/04/17 04:15:01;;;;;;;6.90;6.25;;;;;;;10.57;63.18;94633.81;5077181;28;20270;-71
2022/04/17 04:17:28;;;;;;;6.20;5.78;;;;;;;10.57;64.19;94636.56;5060035;28;20208;-71
2022/04/17 04:19:54;;;;;;;6.53;6.00;;;;;;;10.54;63.66;94632.56;5059805;28;20200;-69
2022/04/17 04:22:21;;;;;;;6.82;6.22;;;;;;;10.56;65.25;94630.22;5077141;28;20192;-70
2022/04/17 04:24:48;;;;;;;6.07;5.57;;;;;;;10.67;64.84;94635.19;5059513;28;20200;-71
2022/04/17 04:30:01;;;;;;;6.18;5.60;;;;;;;10.58;65.65;94647.22;5059551;28;20200;-71
2022/04/17 04:32:28;;;;;;;6.32;5.82;;;;;;;10.55;65.41;94645.19;5076892;28;20185;-71
2022/04/17 04:34:58;;;;;;;6.40;5.90;;;;;;;10.51;65.41;94643.53;5076656;28;20185;-70
2022/04/17 04:37:25;;;;;;;6.53;6.00;;;;;;;10.53;66.14;94644.78;5076864;28;20276;-69
2022/04/17 04:39:53;;;;;;;6.95;6.38;;;;;;;10.52;65.93;94643.16;5076746;28;20241;-70
2022/04/17 04:42:21;;;;;;;6.78;6.10;;;;;;;10.48;66.15;94638.75;5076636;28;20177;-70
2022/04/17 04:46:06;;;;;;;6.55;5.93;;;;;;;10.45;66.12;94643.00;5076660;28;20225;-69
2022/04/17 04:47:34;;;;;;;6.03;5.57;;;;;;;10.48;66.09;94638.75;5058509;28;20196;-69
2022/04/17 04:50:02;;;;;;;6.53;6.03;;;;;;;10.48;66.40;94641.50;5076960;28;20243;-70
2022/04/17 04:52:29;;;;;;;7.07;6.47;;;;;;;10.45;67.00;94634.75;5077080;28;20624;-70
2022/04/17 04:54:55;;;;;;;6.47;5.88;;;;;;;10.47;68.32;94635.19;5059467;28;20189;-70
2022/04/17 04:57:24;;;;;;;6.53;6.03;;;;;;;10.48;68.26;94633.22;5060128;28;20209;-70
2022/04/17 04:59:50;;;;;;;6.10;5.65;;;;;;;10.46;67.46;94639.13;5077507;28;20181;-70
2022/04/17 05:02:17;;;;;;;7.20;6.60;;;;;;;10.36;68.72;94640.47;5077300;28;20215;-70
2022/04/17 05:04:44;;;;;;;7.30;6.70;;;;;;;10.32;69.12;94642.38;5059382;28;20632;-70
2022/04/17 05:07:11;;;;;;;6.90;6.40;;;;;;;10.33;69.81;94643.16;5077310;28;20193;-70
2022/04/17 05:09:38;;;;;;;7.05;6.47;;;;;;;10.28;69.54;94638.75;5059740;28;20250;-70
2022/04/17 05:12:06;;;;;;;7.00;6.40;;;;;;;10.31;69.89;94648.22;5058988;28;20205;-69
2022/04/17 05:14:34;;;;;;;7.18;6.60;;;;;;;10.27;70.07;94639.09;5059622;28;20295;-69
2022/04/17 05:17:01;;;;;;;7.03;6.50;;;;;;;10.17;71.04;94632.16;5076866;28;20648;-69
2022/04/17 05:19:28;;;;;;;7.38;6.78;;;;;;;10.08;70.28;94637.88;5076772;28;20258;-69
2022/04/17 05:21:58;;;;;;;6.90;6.35;;;;;;;10.08;70.41;94637.06;5058529;28;20207;-68
2022/04/17 05:24:25;;;;;;;6.63;6.03;;;;;;;10.05;71.56;94641.34;5075429;28;20633;-69
2022/04/17 05:51:03;;;;;;;6.80;6.30;;;;;;;10.08;71.77;94637.06;5073355;28;20233;-69
2022/04/17 06:17:07;;;;;;;5.63;5.18;;;;;;;9.99;72.74;94620.75;5037631;28;20300;-69
2022/04/17 06:19:35;;;;;;;5.75;5.15;;;;;;;9.97;72.59;94617.56;5055093;28;20190;-69
2022/04/17 06:22:02;;;;;;;6.13;5.63;;;;;;;10.01;72.93;94623.13;5054580;28;20197;-69
2022/04/17 06:24:28;;;;;;;5.75;5.20;;;;;;;10.02;72.81;94625.56;5055068;28;20186;-69
2022/04/17 06:26:55;;;;;;;6.47;5.97;;;;;;;9.97;72.98;94614.00;5053989;28;20201;-69
2022/04/17 06:29:22;;;;;;;7.43;6.82;;;;;;;9.95;73.21;94619.06;5037151;28;20614;-69
2022/04/17 06:31:49;;;;;;;9.30;8.52;;;;;;;9.98;72.50;94624.66;5037803;28;20202;-69
2022/04/17 06:34:17;;;;;;;9.45;8.65;;;;;;;9.96;72.62;94624.22;5037530;28;20201;-70
2022/04/17 06:36:44;;;;;;;10.13;9.35;;;;;;;10.02;72.74;94631.06;5020948;28;20210;-70
2022/04/17 06:39:11;;;;;;;10.95;10.05;;;;;;;10.01;72.72;94625.91;5037074;28;20601;-69
2022/04/17 06:41:38;;;;;;;8.90;8.20;;;;;;;10.02;73.05;94624.72;5036902;28;20193;-70
2022/04/17 06:44:05;;;;;;;8.40;7.70;;;;;;;10.04;72.73;94623.22;5053685;28;20206;-69
2022/04/17 06:46:32;;;;;;;7.82;7.20;;;;;;;10.05;72.86;94629.53;5054718;28;20198;-70
2022/04/17 06:48:59;;;;;;;7.13;6.60;;;;;;;10.01;73.53;94623.94;5054461;28;20229;-70
2022/04/17 06:51:28;;;;;;;7.20;6.60;;;;;;;10.00;72.52;94625.09;5038750;28;20198;-69
2022/04/17 06:53:55;;;;;;;6.40;5.90;;;;;;;9.98;72.33;94629.38;5057065;28;20205;-69
2022/04/17 06:56:22;;;;;;;5.15;4.80;;;;;;;10.02;72.80;94630.25;5073770;28;20213;-70
2022/04/17 06:58:49;;;;;;;5.18;4.70;;;;;;;10.08;72.52;94631.56;5077159;28;20197;-69
2022/04/17 07:01:17;;;;;;;5.25;4.85;;;;;;;10.09;72.34;94628.47;5077320;28;20203;-69
2022/04/17 07:37:28;;;;;;;4.57;4.28;;;;;;;9.96;72.91;94631.69;5097940;28;20283;-69
2022/04/17 07:39:55;;;;;;;5.05;4.65;;;;;;;9.99;73.77;94636.50;5079537;28;20200;-68
2022/04/17 07:52:28;;;;;;;3.63;3.30;;;;;;;9.99;72.75;94634.53;5093044;28;20232;-68
2022/04/17 07:54:55;;;;;;;4.65;3.75;;;;;;;10.00;73.44;94619.59;5079884;28;20219;-69
2022/04/17 07:57:22;;;;;;;4.43;4.13;;;;;;;10.04;73.11;94620.47;5097623;28;20237;-69
2022/04/17 07:59:50;;;;;;;4.43;4.13;;;;;;;10.05;72.97;94618.50;5097371;28;20193;-69
2022/04/17 08:02:27;;;;;;;4.90;4.53;;;;;;;10.03;72.83;94618.88;5079791;28;20200;-69
2022/04/17 08:04:54;;;;;;;4.90;4.50;;;;;;;9.99;73.55;94618.00;5079721;28;20204;-69
2022/04/17 08:07:21;;;;;;;5.25;4.75;;;;;;;10.00;73.12;94621.56;5080234;28;20296;-69
2022/04/17 08:09:49;;;;;;;5.68;5.20;;;;;;;10.04;73.32;94614.97;5097022;28;20192;-69
2022/04/17 08:12:16;;;;;;;5.32;4.82;;;;;;;10.06;73.36;94615.41;5079382;28;20200;-69
2022/04/17 08:14:43;;;;;;;5.00;4.60;;;;;;;10.08;74.59;94617.78;5079494;28;20208;-69
2022/04/17 08:17:10;;;;;;;4.43;4.13;;;;;;;10.13;73.23;94604.53;5079108;28;20216;-69
2022/04/17 08:19:37;;;;;;;4.20;3.90;;;;;;;10.12;73.45;94611.19;5097253;28;20207;-69
2022/04/17 08:22:04;;;;;;;4.82;4.40;;;;;;;10.16;72.95;94607.72;5079328;28;20589;-69
2022/04/17 08:24:31;;;;;;;5.53;5.03;;;;;;;10.16;73.12;94613.22;5096836;28;20185;-69
2022/04/17 08:27:00;;;;;;;5.70;5.20;;;;;;;10.13;73.68;94607.28;5079223;28;20196;-69
2022/04/17 08:29:27;;;;;;;5.38;4.88;;;;;;;10.14;73.19;94608.09;5097055;28;20550;-69
2022/04/17 08:31:54;;;;;;;5.40;4.90;;;;;;;10.12;72.29;94613.94;5079558;28;20601;-69
2022/04/17 08:34:21;;;;;;;4.00;3.70;;;;;;;10.13;72.17;94603.75;5079274;28;20192;-69
2022/04/17 08:36:48;;;;;;;4.28;3.97;;;;;;;10.11;72.31;94609.59;5078975;28;20274;-69
2022/04/17 08:39:16;;;;;;;4.55;4.15;;;;;;;10.12;72.60;94613.94;5078976;28;20519;-69
2022/04/17 10:43:08;;;;;;;4.60;4.30;;;;;;;9.42;71.42;94528.59;5095370;28;20659;-69
2022/04/17 10:46:06;;;;;;;5.45;5.05;;;;;;;9.44;72.53;94522.72;5078673;28;20192;-68
2022/04/17 10:48:42;;;;;;;8.10;7.47;;;;;;;9.43;73.07;94526.63;5078427;28;20207;-68
2022/04/17 10:51:13;;;;;;;10.18;9.38;;;;;;;9.42;73.04;94533.31;5095440;28;20565;-68
2022/04/17 10:53:50;;;;;;;7.18;6.60;;;;;;;9.44;72.78;94531.81;5078196;28;20200;-68
2022/04/17 10:56:17;;;;;;;7.05;6.07;;;;;;;9.38;72.55;94520.25;5078530;28;20214;-68
2022/04/17 10:58:52;;;;;;;5.60;5.13;;;;;;;9.26;71.88;94525.06;5077987;28;20192;-68
2022/04/17 11:01:54;;;;;;;4.68;4.38;;;;;;;9.17;72.35;94519.75;5078194;28;20196;-68
2022/04/17 11:04:26;;;;;;;4.88;4.57;;;;;;;9.20;72.58;94526.50;5070247;28;20307;-68
2022/04/17 11:06:56;;;;;;;4.65;4.35;;;;;;;9.04;71.68;94523.75;5095047;28;20172;-68
2022/04/17 11:09:24;;;;;;;4.50;4.20;;;;;;;8.98;72.98;94514.19;5081224;28;20283;-68
2022/04/17 11:11:52;;;;;;;4.93;4.63;;;;;;;8.90;72.60;94516.78;5082013;28;20192;-69
2022/04/17 11:21:59;;;;;;;4.80;4.40;;;;;;;8.92;73.55;94519.94;5036909;28;20301;-65
2022/04/17 11:24:29;;;;;;;5.57;5.18;;;;;;;8.92;73.20;94513.66;5038315;28;20703;-65
2022/04/17 11:27:10;;;;;;;5.03;4.57;;;;;;;8.86;73.37;94520.56;5038105;28;20269;-65
2022/04/17 11:29:44;;;;;;;5.03;4.70;;;;;;;8.86;73.66;94518.66;5020944;28;20194;-67
2022/04/17 11:32:49;;;;;;;5.97;5.57;;;;;;;8.85;73.21;94525.28;5038137;28;20187;-67
2022/04/17 11:35:19;;;;;;;6.25;5.65;;;;;;;8.82;73.10;94526.00;5037877;28;20204;-67
2022/04/17 11:37:52;;;;;;;5.50;5.10;;;;;;;8.85;73.35;94530.78;5037099;28;20649;-67
2022/04/17 11:40:21;;;;;;;5.68;5.22;;;;;;;8.83;73.53;94526.81;5037976;28;20198;-67
2022/04/17 11:42:51;;;;;;;6.20;5.60;;;;;;;8.79;73.80;94521.22;5037662;28;20183;-67
2022/04/17 11:45:21;;;;;;;5.65;5.25;;;;;;;8.77;73.56;94525.47;5037197;28;20190;-67
2022/04/17 11:47:53;;;;;;;6.20;5.70;;;;;;;8.74;73.81;94523.41;5037901;28;20235;-67
2022/04/17 11:50:26;;;;;;;5.40;4.97;;;;;;;8.58;72.67;94526.97;5020351;28;20202;-67
2022/04/17 11:53:01;;;;;;;5.22;4.82;;;;;;;8.51;72.91;94521.28;5037810;28;20190;-67
2022/04/17 11:55:30;;;;;;;5.15;4.82;;;;;;;8.57;73.16;94530.03;5037483;28;20559;-67
2022/04/17 11:57:58;;;;;;;5.25;4.88;;;;;;;8.49;72.67;94534.56;5036776;28;20218;-67
2022/04/17 12:00:30;;;;;;;5.30;4.90;;;;;;;8.50;72.90;94521.66;5037429;28;20218;-67
2022/04/17 12:03:02;;;;;;;6.05;5.60;;;;;;;8.53;72.80;94520.91;5037273;28;20594;-67
2022/04/17 12:05:31;;;;;;;5.50;5.10;;;;;;;8.49;72.20;94523.56;5037535;28;20190;-67
2022/04/17 12:08:06;;;;;;;5.78;5.38;;;;;;;8.47;72.42;94523.13;5036527;28;20194;-67
2022/04/17 12:10:35;;;;;;;6.20;5.70;;;;;;;8.43;72.59;94517.56;5037606;28;20256;-67
2022/04/17 12:13:18;;;;;;;6.90;6.15;;;;;;;8.46;72.54;94517.97;5037053;28;20205;-67
2022/04/17 12:15:48;;;;;;;6.90;6.38;;;;;;;8.45;72.71;94517.19;5035201;28;20214;-67
2022/04/17 12:18:19;;;;;;;6.70;6.20;;;;;;;8.48;72.99;94516.47;5037200;28;20206;-67
2022/04/17 12:20:57;;;;;;;6.90;6.30;;;;;;;8.42;71.98;94510.47;5036403;28;20238;-67
2022/04/17 12:23:32;;;;;;;7.57;7.00;;;;;;;8.46;72.81;94513.31;5037188;28;20190;-67
2022/04/17 12:26:00;;;;;;;7.50;6.82;;;;;;;8.38;72.60;94508.75;5019634;28;20210;-67
2022/04/17 12:28:28;;;;;;;7.95;7.35;;;;;;;8.37;73.22;94513.44;5019896;28;20252;-67
2022/04/17 12:30:56;;;;;;;8.15;7.43;;;;;;;8.42;73.76;94513.22;5019997;28;20206;-67
2022/04/17 12:33:25;;;;;;;7.45;6.90;;;;;;;8.47;74.74;94520.38;5019362;28;20198;-67
2022/04/17 12:36:08;;;;;;;7.30;6.70;;;;;;;8.46;74.63;94507.81;5036997;28;20210;-67
2022/04/17 12:38:40;;;;;;;6.32;5.82;;;;;;;8.37;73.62;94513.44;5035872;28;20214;-67
2022/04/17 12:41:22;;;;;;;6.07;5.60;;;;;;;8.37;73.62;94509.88;5035981;28;20210;-67
2022/04/17 12:43:51;;;;;;;10.02;9.23;;;;;;;8.31;72.74;94505.78;5036562;28;20252;-65
2022/04/17 12:46:27;;;;;;;6.30;5.90;;;;;;;8.28;73.10;94501.00;5036874;28;20201;-65
2022/04/17 12:49:09;;;;;;;6.43;5.82;;;;;;;8.27;73.67;94500.19;5036201;28;20194;-65
2022/04/17 12:51:38;;;;;;;6.18;5.68;;;;;;;8.32;73.44;94493.66;5036623;28;20194;-65
2022/04/17 12:54:09;;;;;;;6.65;6.05;;;;;;;8.27;73.41;94489.22;5036255;28;20302;-65
2022/04/17 12:56:38;;;;;;;6.35;5.85;;;;;;;8.24;72.45;94495.41;5036099;28;20202;-65
2022/04/17 12:59:08;;;;;;;6.50;6.00;;;;;;;8.25;73.02;94485.22;5019244;28;20202;-64
2022/04/17 13:01:37;;;;;;;7.60;7.00;;;;;;;8.18;72.27;94491.34;5036305;28;20296;-64
2022/04/17 13:04:16;;;;;;;8.35;7.65;;;;;;;8.14;72.87;94491.22;5035563;28;20194;-64
2022/04/17 13:06:47;;;;;;;7.93;7.25;;;;;;;8.09;73.14;94483.22;5036372;28;20256;-65
2022/04/17 13:09:18;;;;;;;7.68;6.88;;;;;;;8.04;74.04;94479.97;5036309;28;20198;-65
2022/04/17 13:11:50;;;;;;;7.95;7.13;;;;;;;8.02;73.69;94479.50;5036014;28;20202;-65
2022/04/17 13:14:19;;;;;;;7.68;7.07;;;;;;;8.00;74.21;94484.56;5036205;28;20202;-65
2022/04/17 13:16:51;;;;;;;6.43;5.93;;;;;;;7.89;73.00;94487.81;5035234;28;20226;-64
2022/04/17 13:19:21;;;;;;;6.50;6.00;;;;;;;7.85;73.58;94483.38;5036145;28;20191;-65
2022/04/17 13:21:51;;;;;;;6.57;6.07;;;;;;;7.92;74.38;94487.09;5028484;28;20239;-65
2022/04/17 13:24:22;;;;;;;7.18;6.63;;;;;;;7.94;73.69;94486.75;4995803;28;20218;-65
2022/04/17 13:26:52;;;;;;;6.03;5.53;;;;;;;7.92;73.20;94478.88;4996475;28;20192;-64
2022/04/17 13:29:20;;;;;;;7.15;6.45;;;;;;;8.00;73.82;94473.56;4996087;28;20254;-65
2022/04/17 13:31:48;;;;;;;6.57;6.00;;;;;;;8.02;74.09;94469.31;4994650;28;20199;-64
2022/04/17 13:34:17;;;;;;;6.00;5.50;;;;;;;7.94;73.66;94475.75;4995147;28;20192;-66
2022/04/17 13:38:10;;;;;;;6.53;5.13;;;;;;;7.86;73.23;94468.47;4995243;28;20250;-62
2022/04/17 13:39:38;;;;;;;5.38;4.97;;;;;;;7.91;73.44;94468.22;4995949;28;20195;-65
2022/04/17 13:42:05;;;;;;;5.32;4.93;;;;;;;7.83;71.85;94464.47;4995273;28;20211;-65
2022/04/17 13:44:38;;;;;;;4.90;4.50;;;;;;;7.80;72.52;94464.38;4996364;28;20202;-65
2022/04/17 13:47:09;;;;;;;4.88;4.50;;;;;;;7.78;72.82;94463.94;4995377;28;20203;-64
2022/04/17 13:49:37;;;;;;;4.40;4.10;;;;;;;7.74;72.49;94474.03;4995224;28;20224;-65
2022/04/17 13:52:05;;;;;;;4.20;3.90;;;;;;;7.67;72.59;94472.69;4995308;28;20548;-64
2022/04/17 13:54:33;;;;;;;3.92;3.63;;;;;;;7.63;73.22;94463.53;4996191;28;20203;-65
2022/04/17 13:57:04;;;;;;;5.97;5.47;;;;;;;7.64;73.39;94467.09;4996088;28;20215;-65
2022/04/17 13:59:32;;;;;;;6.13;5.63;;;;;;;7.68;74.30;94466.03;4995395;28;20226;-65
2022/04/17 14:02:01;;;;;;;5.10;4.70;;;;;;;7.72;73.03;94468.88;4995084;28;20250;-65
2022/04/17 14:04:28;;;;;;;4.60;4.28;;;;;;;7.62;72.88;94469.38;4995942;28;20204;-65
2022/04/17 14:06:57;;;;;;;4.82;4.43;;;;;;;7.65;74.08;94461.22;4995999;28;20210;-65
2022/04/17 14:09:26;;;;;;;4.70;4.40;;;;;;;7.69;74.24;94467.63;4996115;28;20196;-65
2022/04/17 14:11:52;;;;;;;4.60;4.30;;;;;;;7.63;73.23;94460.81;4994993;28;20258;-65
2022/04/17 14:14:23;;;;;;;4.88;3.95;;;;;;;7.60;73.16;94461.50;4995655;28;20191;-65
2022/04/17 14:16:51;;;;;;;4.57;4.22;;;;;;;7.55;74.12;94463.66;4995825;28;20192;-65
2022/04/17 14:19:20;;;;;;;4.80;4.40;;;;;;;7.53;73.65;94466.78;5011128;28;20211;-65
2022/04/17 14:21:49;;;;;;;5.20;4.55;;;;;;;7.52;73.95;94454.22;5031780;28;20234;-65
2022/04/17 14:24:17;;;;;;;4.30;3.88;;;;;;;7.52;72.98;94465.19;5035130;28;20273;-65
2022/04/17 14:26:45;;;;;;;4.50;4.20;;;;;;;7.47;73.23;94465.41;5017827;28;20206;-65
2022/04/17 14:29:14;;;;;;;4.18;3.67;;;;;;;7.39;73.29;94463.63;5035156;28;20194;-65
2022/04/17 14:31:46;;;;;;;4.07;3.78;;;;;;;7.39;73.39;94469.91;5034780;28;20201;-65
2022/04/17 14:34:13;;;;;;;4.05;3.67;;;;;;;7.42;73.38;94457.44;5035096;28;20240;-65
2022/04/17 14:36:41;;;;;;;4.38;3.75;;;;;;;7.44;73.40;94457.88;5017492;28;20198;-65
2022/04/17 14:39:08;;;;;;;4.35;4.00;;;;;;;7.49;73.16;94463.13;5035003;28;20221;-65
2022/04/17 14:41:37;;;;;;;4.15;3.85;;;;;;;7.44;73.69;94457.88;5034658;28;20514;-65
2022/04/17 14:44:05;;;;;;;4.82;4.38;;;;;;;7.45;73.90;94468.53;5037501;28;20192;-65
2022/04/17 14:46:33;;;;;;;4.63;4.13;;;;;;;7.44;73.40;94463.38;5038542;28;20206;-65
2022/04/17 14:49:03;;;;;;;4.35;3.90;;;;;;;7.43;73.79;94457.09;5038800;28;20214;-65
2022/04/17 14:51:31;;;;;;;4.78;3.97;;;;;;;7.40;73.22;94465.22;5038933;28;20264;-65
2022/04/17 14:54:00;;;;;;;3.78;3.47;;;;;;;7.38;73.29;94462.03;5038921;28;20189;-65
2022/04/17 14:56:31;;;;;;;3.88;3.47;;;;;;;7.39;73.24;94460.88;5038816;28;20182;-65
2022/04/17 14:59:01;;;;;;;4.20;3.90;;;;;;;7.40;73.91;94456.97;5021054;28;20308;-65
2022/04/17 15:01:29;;;;;;;5.53;5.07;;;;;;;7.40;73.82;94455.03;5038569;28;20525;-64
2022/04/17 15:03:56;;;;;;;6.43;5.93;;;;;;;7.31;72.94;94462.63;5020703;28;20429;-65
2022/04/17 15:06:26;;;;;;;5.07;4.68;;;;;;;7.24;72.15;94465.16;5021739;28;20270;-65
2022/04/17 15:08:54;;;;;;;4.57;4.28;;;;;;;7.09;72.56;94474.88;5038316;28;20191;-67
2022/04/17 15:11:22;;;;;;;5.90;5.40;;;;;;;7.02;72.35;94465.66;5019993;28;20423;-66
2022/04/17 15:13:55;;;;;;;5.38;4.88;;;;;;;6.98;72.76;94474.56;5037794;28;20195;-67
2022/04/17 15:16:23;;;;;;;5.25;4.78;;;;;;;7.00;73.18;94468.72;5021135;28;20229;-69
2022/04/17 15:18:51;;;;;;;4.53;4.10;;;;;;;7.02;73.32;94460.16;5020983;28;20317;-67
2022/04/17 15:21:18;;;;;;;4.10;3.80;;;;;;;7.03;72.88;94462.53;5003510;28;20243;-68
2022/04/17 15:23:48;;;;;;;4.10;3.80;;;;;;;7.02;72.81;94465.66;4998803;28;20596;-68
2022/04/17 15:26:16;;;;;;;4.32;4.03;;;;;;;6.97;72.80;94463.91;4998507;28;20275;-67
2022/04/17 15:28:48;;;;;;;4.28;3.88;;;;;;;6.90;72.58;94464.50;4998959;28;20184;-67
2022/04/17 15:31:17;;;;;;;3.70;3.50;;;;;;;6.88;73.12;94472.28;4998592;28;20227;-68
2022/04/17 15:33:45;;;;;;;3.63;3.33;;;;;;;6.85;73.10;94470.22;4998851;28;20188;-68